KSEM

Craig Field Airport

Selma, Alabama, USA
METAR KSEM 151615Z AUTO 22007G12KT 10SM 11/08 A2998 RMK AO2
Observed Flight Rules
Dec-15 @ 16:15 UTC (23 minutes ago)
Wind Visibility
220° at 7 knots
 Gusting to 12 knots
10 miles
Temperatures Readings
Current 11°C / 52°F
Dewpoint 8°C / 46°F
Humidity 82%
Altimeter 29.98" Hg
Pressure 1015 hPa
Elevation 51
METAR KSEM 151615Z AUTO 22007G12KT 10SM 11/08 A2998 RMK AO2
Observed Flight Rules
Dec-15 @ 16:15 UTC
(23 minutes ago)
Wind Visibility
220° at 7 knots
 Gusting to 12 knots
10 miles
Temperature Dewpoint
11°C / 52°F 8°C / 46°F
Humidity Altimeter Pressure
82% 29.98" Hg 1015 hPa